Time;durP1;ratioP1;P1;durP2;ratioP2;P2;SDS_P1;SDS_P2;PMS_P1;PMS_P2;Temp;Humidity;BMP_temperature;BMP_pressure;BME280_temperature;BME280_humidity;BME280_pressure;Samples;Min_cycle;Max_cycle;Signal;HPM_P1;HPM_P2
2023/03/05 00:01:21;;;;;;;31.47;19.33;;;6.70;99.90;;;;;;5094441;28;20215;-57
2023/03/05 00:03:48;;;;;;;30.37;19.17;;;6.70;99.90;;;;;;5094775;28;20255;-58
2023/03/05 00:06:16;;;;;;;35.90;21.07;;;6.70;99.90;;;;;;5094642;28;20588;-57
2023/03/05 00:08:43;;;;;;;33.57;18.97;;;6.70;99.90;;;;;;5094765;28;20208;-57
2023/03/05 00:11:12;;;;;;;29.80;18.17;;;6.70;99.90;;;;;;5094374;28;20244;-57
2023/03/05 00:13:39;;;;;;;30.67;20.23;;;6.80;99.90;;;;;;5094822;28;20232;-58
2023/03/05 00:16:11;;;;;;;28.17;17.43;;;6.90;99.90;;;;;;5094165;28;20200;-58
2023/03/05 00:18:38;;;;;;;30.87;17.73;;;6.90;99.90;;;;;;5093685;28;20219;-58
2023/03/05 00:21:05;;;;;;;30.37;17.77;;;7.00;99.90;;;;;;5093765;28;20205;-58
2023/03/05 00:23:32;;;;;;;29.97;18.23;;;7.00;99.90;;;;;;5093416;28;20576;-57
2023/03/05 00:26:02;;;;;;;31.20;19.00;;;7.00;99.90;;;;;;5093841;28;20208;-58
2023/03/05 00:28:29;;;;;;;30.40;19.40;;;7.00;99.90;;;;;;5093976;28;20655;-57
2023/03/05 00:30:59;;;;;;;31.70;20.17;;;7.00;99.90;;;;;;5092919;28;20306;-57
2023/03/05 00:33:27;;;;;;;30.77;19.37;;;7.00;99.90;;;;;;5094400;28;20200;-57
2023/03/05 00:35:54;;;;;;;29.03;18.43;;;6.90;99.90;;;;;;5094195;28;20215;-59
2023/03/05 00:38:21;;;;;;;33.37;19.60;;;6.80;99.90;;;;;;5095883;28;20242;-59
2023/03/05 00:40:50;;;;;;;35.87;18.87;;;6.80;99.90;;;;;;5095780;28;20291;-59
2023/03/05 00:43:17;;;;;;;30.00;18.53;;;6.80;99.90;;;;;;5095153;28;20208;-59
2023/03/05 00:45:44;;;;;;;32.27;18.47;;;6.90;99.90;;;;;;5095914;28;20204;-59
2023/03/05 00:48:11;;;;;;;30.57;19.00;;;6.90;99.90;;;;;;5096474;28;20224;-58
2023/03/05 00:50:39;;;;;;;28.20;18.83;;;7.00;99.90;;;;;;5095757;28;20219;-59
2023/03/05 00:53:06;;;;;;;30.67;18.27;;;7.00;99.90;;;;;;5095809;28;20234;-59
2023/03/05 00:55:34;;;;;;;30.57;17.83;;;6.90;99.90;;;;;;5095565;28;20738;-59
2023/03/05 00:58:01;;;;;;;27.97;18.30;;;6.80;99.90;;;;;;5095290;28;20200;-59
2023/03/05 01:00:28;;;;;;;30.30;18.70;;;6.80;99.90;;;;;;5095159;28;20208;-59
2023/03/05 01:02:55;;;;;;;30.47;18.57;;;6.80;99.90;;;;;;5095729;28;20204;-59
2023/03/05 01:05:22;;;;;;;30.30;19.13;;;6.70;99.90;;;;;;5094993;28;20606;-59
2023/03/05 01:07:52;;;;;;;29.87;18.90;;;6.70;99.90;;;;;;5095464;28;20210;-59
2023/03/05 01:10:19;;;;;;;31.23;19.13;;;6.60;99.90;;;;;;5095191;28;20208;-59
2023/03/05 01:12:45;;;;;;;31.30;19.13;;;6.60;99.90;;;;;;5094810;28;20243;-59
2023/03/05 01:15:12;;;;;;;30.20;18.93;;;6.70;99.90;;;;;;5094970;28;20604;-59
2023/03/05 01:17:39;;;;;;;29.77;18.57;;;6.70;99.90;;;;;;5095794;28;20656;-59
2023/03/05 01:20:07;;;;;;;29.67;19.47;;;6.70;99.90;;;;;;5095486;28;20296;-59
2023/03/05 01:22:34;;;;;;;27.50;17.93;;;6.70;99.90;;;;;;5095276;28;20200;-59
2023/03/05 01:25:03;;;;;;;31.37;20.03;;;6.80;99.90;;;;;;5094509;28;20663;-59
2023/03/05 01:27:29;;;;;;;35.47;19.27;;;6.80;99.90;;;;;;5094610;28;20698;-60
2023/03/05 01:29:56;;;;;;;30.40;18.37;;;6.80;99.90;;;;;;5094353;28;20200;-60
2023/03/05 01:32:23;;;;;;;27.93;18.50;;;6.90;99.90;;;;;;5094787;28;20250;-60
2023/03/05 01:34:50;;;;;;;28.40;17.73;;;6.90;99.90;;;;;;5094817;28;20604;-60
2023/03/05 01:37:17;;;;;;;29.17;19.17;;;6.90;99.90;;;;;;5095206;28;20681;-59
2023/03/05 01:39:44;;;;;;;29.60;18.60;;;6.90;99.90;;;;;;5094827;28;20596;-60
2023/03/05 01:42:12;;;;;;;33.80;19.77;;;7.00;99.90;;;;;;5097039;28;20200;-59
2023/03/05 01:44:38;;;;;;;28.43;18.20;;;7.00;99.90;;;;;;5099027;28;20232;-58
2023/03/05 01:47:06;;;;;;;26.40;16.23;;;7.10;99.90;;;;;;5098658;28;20226;-59
2023/03/05 01:49:36;;;;;;;25.60;16.30;;;7.00;99.90;;;;;;5098855;28;20264;-58
2023/03/05 01:52:10;;;;;;;27.57;15.60;;;7.00;99.90;;;;;;5098680;28;20274;-58
2023/03/05 01:54:40;;;;;;;28.23;16.57;;;7.00;99.90;;;;;;5098707;28;20727;-58
2023/03/05 01:57:11;;;;;;;25.93;15.33;;;7.00;99.90;;;;;;5098823;28;20242;-58
2023/03/05 01:59:41;;;;;;;24.03;14.80;;;6.90;99.90;;;;;;5098687;28;20291;-58
2023/03/05 02:02:09;;;;;;;26.93;15.53;;;6.90;99.90;;;;;;5098579;28;20257;-59
2023/03/05 02:04:42;;;;;;;24.50;14.80;;;7.00;99.90;;;;;;5098978;28;20225;-59
2023/03/05 02:07:09;;;;;;;25.63;15.27;;;7.00;99.90;;;;;;5098731;28;20258;-59
2023/03/05 02:09:38;;;;;;;26.20;15.13;;;7.00;99.90;;;;;;5098414;28;20610;-59
2023/03/05 02:12:06;;;;;;;28.37;15.20;;;7.00;99.90;;;;;;5097958;28;20234;-59
2023/03/05 02:14:33;;;;;;;27.10;14.77;;;7.10;99.90;;;;;;5098641;28;20666;-58
2023/03/05 02:17:01;;;;;;;24.00;14.83;;;7.10;99.90;;;;;;5098148;28;20208;-59
2023/03/05 02:19:28;;;;;;;27.77;14.53;;;7.20;99.90;;;;;;5097708;28;20218;-59
2023/03/05 02:21:56;;;;;;;24.47;15.07;;;7.20;99.90;;;;;;5097938;28;20521;-59
2023/03/05 02:24:36;;;;;;;28.13;15.17;;;7.20;99.90;;;;;;5097798;28;20235;-57
2023/03/05 02:27:04;;;;;;;24.63;14.80;;;7.20;99.90;;;;;;5097345;28;20565;-58
2023/03/05 02:29:33;;;;;;;26.77;14.40;;;7.30;99.90;;;;;;5097745;28;20251;-59
2023/03/05 02:32:01;;;;;;;24.67;14.57;;;7.30;99.90;;;;;;5097428;28;20220;-58
2023/03/05 02:34:27;;;;;;;22.33;13.90;;;7.30;99.90;;;;;;5097566;28;20708;-57
2023/03/05 02:36:56;;;;;;;29.53;15.23;;;7.30;99.90;;;;;;5097149;28;20200;-58
2023/03/05 02:39:22;;;;;;;28.50;17.23;;;7.30;99.90;;;;;;5097334;28;20208;-58
2023/03/05 02:41:49;;;;;;;26.80;15.70;;;7.30;99.90;;;;;;5097085;28;20624;-59
2023/03/05 02:44:16;;;;;;;24.87;16.17;;;7.30;99.90;;;;;;5097607;28;20235;-58
2023/03/05 02:46:43;;;;;;;24.20;14.87;;;7.30;99.90;;;;;;5096906;28;20208;-59
2023/03/05 02:49:09;;;;;;;27.70;15.43;;;7.40;99.90;;;;;;5097522;28;20596;-59
2023/03/05 02:51:36;;;;;;;22.37;13.63;;;7.30;99.90;;;;;;5096893;28;20228;-59
2023/03/05 02:54:05;;;;;;;23.83;13.93;;;7.30;99.90;;;;;;5096462;28;20232;-57
2023/03/05 02:56:32;;;;;;;24.67;13.93;;;7.30;99.90;;;;;;5096301;28;20210;-57
2023/03/05 02:58:59;;;;;;;25.93;14.87;;;7.20;99.90;;;;;;5096275;28;20646;-57
2023/03/05 03:01:27;;;;;;;28.67;16.97;;;7.20;99.90;;;;;;5095971;28;20577;-57
2023/03/05 03:03:53;;;;;;;24.07;14.30;;;7.20;99.90;;;;;;5096012;28;20224;-57
2023/03/05 03:06:20;;;;;;;23.03;13.53;;;7.20;99.90;;;;;;5095995;28;20700;-56
2023/03/05 03:08:47;;;;;;;25.87;14.80;;;7.20;99.90;;;;;;5095408;28;20204;-57
2023/03/05 03:11:16;;;;;;;26.37;14.97;;;7.20;99.90;;;;;;5095602;28;20212;-57
2023/03/05 03:13:43;;;;;;;27.90;15.17;;;7.30;99.90;;;;;;5095423;28;20661;-57
2023/03/05 03:16:12;;;;;;;26.83;14.97;;;7.30;99.90;;;;;;5095906;28;20212;-56
2023/03/05 03:18:39;;;;;;;25.87;14.33;;;7.30;99.90;;;;;;5095950;28;20687;-57
2023/03/05 03:21:07;;;;;;;26.73;15.43;;;7.30;99.90;;;;;;5095227;28;20201;-57
2023/03/05 03:23:34;;;;;;;21.50;13.80;;;7.30;99.90;;;;;;5095615;28;20208;-57
2023/03/05 03:26:01;;;;;;;24.63;14.20;;;7.20;99.90;;;;;;5095310;28;20639;-57
2023/03/05 03:28:29;;;;;;;22.10;13.50;;;7.20;99.90;;;;;;5096006;28;20208;-57
2023/03/05 03:30:56;;;;;;;27.70;13.83;;;7.20;99.90;;;;;;5095327;28;20652;-57
2023/03/05 03:33:22;;;;;;;24.33;14.70;;;7.20;99.90;;;;;;5094916;28;20301;-57
2023/03/05 03:35:49;;;;;;;26.13;14.13;;;7.20;99.90;;;;;;5095165;28;20215;-58
2023/03/05 03:38:16;;;;;;;24.03;14.10;;;7.20;99.90;;;;;;5094774;28;20577;-57
2023/03/05 03:40:43;;;;;;;22.13;13.50;;;7.20;99.90;;;;;;5094661;28;20547;-57
2023/03/05 03:43:10;;;;;;;24.33;14.33;;;7.20;99.90;;;;;;5094827;28;20200;-57
2023/03/05 03:45:42;;;;;;;24.97;13.93;;;7.30;99.90;;;;;;5094894;28;20708;-57
2023/03/05 03:48:09;;;;;;;22.23;13.70;;;7.20;99.90;;;;;;5095439;28;20303;-57
2023/03/05 03:50:39;;;;;;;27.27;14.37;;;7.20;99.90;;;;;;5094673;28;20204;-58
2023/03/05 03:53:06;;;;;;;25.53;14.43;;;7.30;99.90;;;;;;5095040;28;20220;-57
2023/03/05 03:55:33;;;;;;;24.47;13.53;;;7.30;99.90;;;;;;5095147;28;20242;-58
2023/03/05 03:58:00;;;;;;;25.27;13.77;;;7.30;99.90;;;;;;5095816;28;20207;-57
2023/03/05 04:00:27;;;;;;;24.80;14.40;;;7.20;99.90;;;;;;5094917;28;20581;-57
2023/03/05 04:02:55;;;;;;;24.97;13.17;;;7.20;99.90;;;;;;5095882;28;20488;-56
2023/03/05 04:05:22;;;;;;;22.77;13.07;;;7.20;99.90;;;;;;5094839;28;20235;-56
2023/03/05 04:07:48;;;;;;;24.37;13.77;;;7.20;99.90;;;;;;5095236;28;20287;-57
2023/03/05 04:10:16;;;;;;;22.67;12.93;;;7.30;99.90;;;;;;5094904;28;20201;-57
2023/03/05 04:12:45;;;;;;;24.77;13.57;;;7.30;99.90;;;;;;5095154;28;20605;-57
2023/03/05 04:15:12;;;;;;;25.87;13.63;;;7.40;99.90;;;;;;5094697;28;20228;-56
2023/03/05 04:17:39;;;;;;;22.90;13.80;;;7.40;99.90;;;;;;5094791;28;20215;-58
2023/03/05 04:20:09;;;;;;;23.17;13.73;;;7.40;99.90;;;;;;5095095;28;20210;-57
2023/03/05 04:22:36;;;;;;;22.87;12.87;;;7.30;99.90;;;;;;5095004;28;20200;-56
2023/03/05 04:25:05;;;;;;;20.93;12.70;;;7.40;99.90;;;;;;5094592;28;20314;-58
2023/03/05 04:27:32;;;;;;;24.33;12.80;;;7.40;99.90;;;;;;5095267;28;20597;-60
2023/03/05 04:29:59;;;;;;;28.00;13.77;;;7.40;99.90;;;;;;5095266;28;20616;-59
2023/03/05 04:32:27;;;;;;;20.90;12.40;;;7.30;99.90;;;;;;5095758;28;20269;-60
2023/03/05 04:34:54;;;;;;;23.90;14.30;;;7.20;99.90;;;;;;5095562;28;20220;-57
2023/03/05 04:37:22;;;;;;;24.87;13.40;;;7.30;99.90;;;;;;5095381;28;20332;-59
2023/03/05 04:39:49;;;;;;;26.03;13.50;;;7.30;99.90;;;;;;5095464;28;20204;-59
2023/03/05 04:42:17;;;;;;;27.20;13.67;;;7.30;99.90;;;;;;5094454;28;20201;-57
2023/03/05 04:44:44;;;;;;;23.17;13.27;;;7.30;99.90;;;;;;5093995;28;20314;-58
2023/03/05 04:47:11;;;;;;;24.57;13.47;;;7.30;99.90;;;;;;5094736;28;20291;-60
2023/03/05 04:49:37;;;;;;;21.93;12.83;;;7.30;99.90;;;;;;5094077;28;20582;-58
2023/03/05 04:52:04;;;;;;;23.53;13.80;;;7.20;99.90;;;;;;5093920;28;20687;-57
2023/03/05 04:54:32;;;;;;;25.87;13.70;;;7.20;99.90;;;;;;5094293;28;20330;-59
2023/03/05 04:56:59;;;;;;;22.00;13.47;;;7.20;99.90;;;;;;5094150;28;20211;-59
2023/03/05 04:59:26;;;;;;;24.13;13.83;;;7.20;99.90;;;;;;5094032;28;20660;-59
2023/03/05 05:01:53;;;;;;;24.10;13.30;;;7.20;99.90;;;;;;5094151;28;20687;-60
2023/03/05 05:04:20;;;;;;;24.97;13.23;;;7.20;99.90;;;;;;5093482;28;20229;-60
2023/03/05 05:06:46;;;;;;;23.47;13.23;;;7.20;99.90;;;;;;5094147;28;20208;-60
2023/03/05 05:09:13;;;;;;;23.73;12.97;;;7.10;99.90;;;;;;5094431;28;20204;-57
2023/03/05 05:11:41;;;;;;;25.37;12.80;;;7.20;99.90;;;;;;5093465;28;20211;-57
2023/03/05 05:14:08;;;;;;;26.13;13.07;;;7.20;99.90;;;;;;5094193;28;20239;-59
2023/03/05 05:16:35;;;;;;;23.57;12.37;;;7.20;99.90;;;;;;5093444;28;20291;-57
2023/03/05 05:19:02;;;;;;;23.03;13.47;;;7.00;99.90;;;;;;5093717;28;20581;-58
2023/03/05 05:21:29;;;;;;;23.97;12.43;;;6.90;99.90;;;;;;5093564;28;20209;-57
2023/03/05 05:23:56;;;;;;;26.40;13.33;;;7.00;99.90;;;;;;5094144;28;20220;-60
2023/03/05 05:26:23;;;;;;;23.63;12.93;;;7.10;99.90;;;;;;5094009;28;20236;-62
2023/03/05 05:28:51;;;;;;;23.77;12.87;;;7.10;99.90;;;;;;5093544;28;20211;-58
2023/03/05 05:31:18;;;;;;;20.43;12.27;;;7.10;99.90;;;;;;5093922;28;20208;-59
2023/03/05 05:33:45;;;;;;;21.77;12.17;;;7.10;99.90;;;;;;5093382;28;20224;-57
2023/03/05 05:36:14;;;;;;;24.97;13.57;;;7.10;99.90;;;;;;5093057;28;20589;-58
2023/03/05 05:38:42;;;;;;;20.27;12.27;;;7.10;99.90;;;;;;5092864;28;20664;-57
2023/03/05 05:41:11;;;;;;;24.93;12.97;;;7.20;99.90;;;;;;5092486;28;20207;-58
2023/03/05 05:43:38;;;;;;;22.83;13.10;;;7.20;99.90;;;;;;5092278;28;20765;-58
2023/03/05 05:46:08;;;;;;;22.60;13.13;;;7.30;99.90;;;;;;5094611;28;20208;-59
2023/03/05 05:48:35;;;;;;;21.90;12.73;;;7.30;99.90;;;;;;5096130;28;20235;-60
2023/03/05 05:51:06;;;;;;;24.60;13.43;;;7.30;99.90;;;;;;5096484;28;20208;-59
2023/03/05 05:53:33;;;;;;;24.07;13.37;;;7.40;99.90;;;;;;5096341;28;20224;-58
2023/03/05 05:56:00;;;;;;;21.83;13.03;;;7.30;99.90;;;;;;5096373;28;20200;-57
2023/03/05 05:58:27;;;;;;;24.33;13.00;;;7.30;99.90;;;;;;5097576;28;20208;-59
2023/03/05 06:00:54;;;;;;;22.77;12.83;;;7.30;99.90;;;;;;5097177;28;20287;-57
2023/03/05 06:03:22;;;;;;;26.83;16.47;;;7.30;99.90;;;;;;5097130;28;20207;-57
2023/03/05 06:05:50;;;;;;;25.50;12.63;;;7.30;99.90;;;;;;5096971;28;20208;-60
2023/03/05 06:08:17;;;;;;;23.50;12.03;;;7.30;99.90;;;;;;5095885;28;20213;-60
2023/03/05 06:10:44;;;;;;;22.17;12.23;;;7.20;99.90;;;;;;5095049;28;20208;-60
2023/03/05 06:13:11;;;;;;;20.43;11.50;;;7.20;99.90;;;;;;5095191;28;20239;-58
2023/03/05 06:15:38;;;;;;;20.80;12.00;;;7.20;99.90;;;;;;5095380;28;20243;-59
2023/03/05 06:18:05;;;;;;;19.27;11.27;;;7.20;99.90;;;;;;5095753;28;20212;-58
2023/03/05 06:20:33;;;;;;;21.83;11.10;;;7.20;99.90;;;;;;5095094;28;20720;-59
2023/03/05 06:23:00;;;;;;;25.93;14.50;;;7.30;99.90;;;;;;5096006;28;20672;-57
2023/03/05 06:25:27;;;;;;;24.30;11.53;;;7.20;99.90;;;;;;5094667;28;20224;-57
2023/03/05 06:27:54;;;;;;;22.07;11.33;;;7.20;99.90;;;;;;5093918;28;20212;-59
2023/03/05 06:30:20;;;;;;;22.40;10.77;;;7.30;99.90;;;;;;5097836;28;20214;-58
2023/03/05 06:32:47;;;;;;;22.00;11.27;;;7.30;99.90;;;;;;5097952;28;20224;-58
2023/03/05 06:35:14;;;;;;;21.90;10.87;;;7.30;99.90;;;;;;5097309;28;20269;-57
2023/03/05 06:37:42;;;;;;;19.07;10.93;;;7.30;99.90;;;;;;5097446;28;20567;-57
2023/03/05 06:40:10;;;;;;;24.00;11.43;;;7.20;99.90;;;;;;5098461;28;20676;-62
2023/03/05 06:42:37;;;;;;;21.80;11.43;;;7.20;99.90;;;;;;5097360;28;20204;-59
2023/03/05 06:45:05;;;;;;;27.43;13.33;;;7.20;99.90;;;;;;5097941;28;20319;-60
2023/03/05 06:47:32;;;;;;;23.70;12.17;;;7.20;99.90;;;;;;5097312;28;20215;-59
2023/03/05 06:49:58;;;;;;;21.73;10.57;;;7.20;99.90;;;;;;5097742;28;20200;-58
2023/03/05 06:52:25;;;;;;;20.87;11.53;;;7.20;99.90;;;;;;5097232;28;20672;-60
2023/03/05 06:54:54;;;;;;;21.03;10.27;;;7.20;99.90;;;;;;5096295;28;20311;-58
2023/03/05 06:57:21;;;;;;;19.40;10.07;;;7.20;99.90;;;;;;5095991;28;20208;-56
2023/03/05 06:59:48;;;;;;;21.63;10.13;;;7.30;99.90;;;;;;5096384;28;20227;-60
2023/03/05 07:02:15;;;;;;;18.80;10.00;;;7.30;99.90;;;;;;5096685;28;20246;-59
2023/03/05 07:04:42;;;;;;;19.33;10.07;;;7.30;99.90;;;;;;5096817;28;20230;-61
2023/03/05 07:07:09;;;;;;;21.13;10.90;;;7.30;99.90;;;;;;5097197;28;20211;-59
2023/03/05 07:09:41;;;;;;;19.23;10.37;;;7.30;99.90;;;;;;5097335;28;20208;-60
2023/03/05 07:12:10;;;;;;;17.90;10.60;;;7.40;99.90;;;;;;5097351;28;20207;-59
2023/03/05 07:14:37;;;;;;;20.77;9.87;;;7.40;99.90;;;;;;5097387;28;20281;-59
2023/03/05 07:17:04;;;;;;;19.30;10.43;;;7.40;99.90;;;;;;5097244;28;20209;-58
2023/03/05 07:19:31;;;;;;;19.00;10.20;;;7.40;99.90;;;;;;5095251;28;20215;-58
2023/03/05 07:21:58;;;;;;;19.70;10.43;;;7.40;99.90;;;;;;5095201;28;20204;-57
2023/03/05 07:24:28;;;;;;;20.27;10.63;;;7.30;99.90;;;;;;5097035;28;20227;-59
2023/03/05 07:26:55;;;;;;;17.50;9.97;;;7.20;99.90;;;;;;5096848;28;20205;-59
2023/03/05 07:29:24;;;;;;;26.07;10.90;;;7.20;99.90;;;;;;5096774;28;20249;-60
2023/03/05 07:31:51;;;;;;;22.03;10.70;;;7.30;99.90;;;;;;5095245;28;20481;-58
2023/03/05 07:34:18;;;;;;;18.53;9.83;;;7.30;99.90;;;;;;5094585;28;20247;-59
2023/03/05 07:36:45;;;;;;;23.47;10.87;;;7.40;99.90;;;;;;5094598;28;20200;-59
2023/03/05 07:39:13;;;;;;;17.57;9.60;;;7.50;99.90;;;;;;5094400;28;20289;-57
2023/03/05 07:41:40;;;;;;;19.93;10.77;;;7.50;99.90;;;;;;5094247;28;20204;-57
2023/03/05 07:44:06;;;;;;;21.30;10.50;;;7.60;99.90;;;;;;5094172;28;20633;-58
2023/03/05 07:46:35;;;;;;;21.03;10.47;;;7.50;99.90;;;;;;5094004;28;20212;-55
2023/03/05 07:49:02;;;;;;;23.00;11.40;;;7.60;99.90;;;;;;5094078;28;20208;-55
2023/03/05 07:51:29;;;;;;;17.50;10.40;;;7.60;99.90;;;;;;5093747;28;20204;-56
2023/03/05 07:53:58;;;;;;;19.73;10.50;;;7.60;99.90;;;;;;5094000;28;20231;-59
2023/03/05 07:56:28;;;;;;;21.70;11.17;;;7.60;99.90;;;;;;5093795;28;20200;-58
2023/03/05 07:58:55;;;;;;;21.83;10.80;;;7.60;99.90;;;;;;5093741;28;20295;-57
2023/03/05 08:01:22;;;;;;;19.17;10.87;;;7.70;99.90;;;;;;5093854;28;20209;-58
2023/03/05 08:03:50;;;;;;;18.47;9.40;;;7.60;99.90;;;;;;5093936;28;20232;-59
2023/03/05 08:06:17;;;;;;;20.40;10.70;;;7.80;99.90;;;;;;5093618;28;20631;-59
2023/03/05 08:08:44;;;;;;;22.87;10.80;;;7.90;99.90;;;;;;5094216;28;20217;-57
2023/03/05 08:11:13;;;;;;;16.83;9.87;;;8.10;99.90;;;;;;5093528;28;20281;-60
2023/03/05 08:13:40;;;;;;;22.43;11.70;;;8.20;99.90;;;;;;5093648;28;20228;-56
2023/03/05 08:16:09;;;;;;;17.57;9.70;;;8.30;99.90;;;;;;5094084;28;20207;-58
2023/03/05 08:18:36;;;;;;;18.73;10.60;;;8.40;99.90;;;;;;5093740;28;20204;-58
2023/03/05 08:21:05;;;;;;;21.30;11.13;;;8.50;99.90;;;;;;5093774;28;20200;-58
2023/03/05 08:23:33;;;;;;;19.17;10.10;;;8.50;99.90;;;;;;5093206;28;20227;-59
2023/03/05 08:26:00;;;;;;;18.37;10.97;;;8.40;99.90;;;;;;5093130;28;20204;-56
2023/03/05 08:28:27;;;;;;;19.40;9.77;;;8.20;99.90;;;;;;5093078;28;20651;-58
2023/03/05 08:30:54;;;;;;;19.03;10.33;;;8.30;99.90;;;;;;5093098;28;20265;-57
2023/03/05 08:33:20;;;;;;;21.33;10.30;;;8.10;99.90;;;;;;5093059;28;20718;-57
2023/03/05 08:35:47;;;;;;;20.93;11.00;;;7.80;99.90;;;;;;5093483;28;20231;-57
2023/03/05 08:38:15;;;;;;;17.67;10.03;;;7.60;99.90;;;;;;5092980;28;20204;-57
2023/03/05 08:40:42;;;;;;;24.97;13.50;;;7.40;99.90;;;;;;5092638;28;20208;-57
2023/03/05 08:43:09;;;;;;;49.80;38.27;;;7.40;99.90;;;;;;5092902;28;20274;-58
2023/03/05 08:45:35;;;;;;;28.83;15.30;;;7.50;99.90;;;;;;5093038;28;20232;-58
2023/03/05 08:48:02;;;;;;;18.47;10.43;;;7.70;99.90;;;;;;5093198;28;20208;-58
2023/03/05 08:50:29;;;;;;;20.20;10.63;;;7.90;99.90;;;;;;5092682;28;20238;-56
2023/03/05 08:52:56;;;;;;;23.97;11.50;;;8.10;99.90;;;;;;5092204;28;20211;-56
2023/03/05 08:55:24;;;;;;;17.83;10.73;;;8.20;99.90;;;;;;5092768;28;20228;-58
2023/03/05 08:57:51;;;;;;;20.63;10.73;;;8.10;99.90;;;;;;5093164;28;20212;-59
2023/03/05 09:00:19;;;;;;;20.33;12.00;;;8.10;99.90;;;;;;5092991;28;20215;-58
2023/03/05 09:02:46;;;;;;;20.17;11.43;;;8.20;99.90;;;;;;5092617;28;20608;-59
2023/03/05 09:05:13;;;;;;;25.90;11.63;;;8.40;99.90;;;;;;5092533;28;20235;-58
2023/03/05 09:07:40;;;;;;;23.13;11.60;;;8.50;99.90;;;;;;5092688;28;20211;-57
2023/03/05 09:10:10;;;;;;;19.40;10.27;;;8.60;99.90;;;;;;5092729;28;20686;-57
2023/03/05 09:12:38;;;;;;;19.70;11.17;;;8.60;99.90;;;;;;5092746;28;20692;-58
2023/03/05 09:15:07;;;;;;;22.87;11.60;;;8.60;99.90;;;;;;5092633;28;20313;-59
2023/03/05 09:17:33;;;;;;;22.40;11.30;;;8.60;99.90;;;;;;5092399;28;20204;-58
2023/03/05 09:20:01;;;;;;;20.97;11.47;;;8.60;99.90;;;;;;5092826;28;20589;-58
2023/03/05 09:22:29;;;;;;;30.97;16.90;;;8.40;99.90;;;;;;5093041;28;20204;-57
2023/03/05 09:24:56;;;;;;;23.97;13.40;;;8.20;99.90;;;;;;5092712;28;20216;-57
2023/03/05 09:27:23;;;;;;;20.13;11.20;;;8.20;99.90;;;;;;5093103;28;20597;-58
2023/03/05 09:29:51;;;;;;;20.63;10.93;;;8.10;99.90;;;;;;5092997;28;20216;-57
2023/03/05 09:32:18;;;;;;;21.03;11.17;;;8.10;99.90;;;;;;5092459;28;20204;-58
2023/03/05 09:34:45;;;;;;;19.77;11.07;;;8.20;99.90;;;;;;5092261;28;20228;-58
2023/03/05 09:37:12;;;;;;;22.50;11.03;;;8.30;99.90;;;;;;5092669;28;20204;-59
2023/03/05 09:39:39;;;;;;;22.70;10.87;;;8.40;99.90;;;;;;5092248;28;20204;-59
2023/03/05 09:42:29;;;;;;;20.07;10.97;;;8.60;99.90;;;;;;5092067;28;20691;-58
2023/03/05 09:45:09;;;;;;;18.47;10.50;;;8.60;99.90;;;;;;5092367;28;20223;-58
2023/03/05 09:47:48;;;;;;;18.47;10.23;;;8.70;99.90;;;;;;5092493;28;20204;-59
2023/03/05 09:50:31;;;;;;;23.30;10.93;;;8.70;99.90;;;;;;5092251;28;20204;-59
2023/03/05 09:53:02;;;;;;;21.03;10.87;;;8.50;99.90;;;;;;5091883;28;20577;-59
2023/03/05 09:55:34;;;;;;;21.40;11.00;;;8.70;99.90;;;;;;5092040;28;20315;-58
2023/03/05 09:58:05;;;;;;;21.63;11.43;;;8.90;99.90;;;;;;5091914;28;20668;-58
2023/03/05 10:00:39;;;;;;;19.43;10.97;;;9.00;99.90;;;;;;5092445;28;20204;-57
2023/03/05 10:03:12;;;;;;;20.47;12.07;;;8.70;99.90;;;;;;5094054;28;20204;-58
2023/03/05 10:06:00;;;;;;;21.07;11.27;;;8.80;99.90;;;;;;5095826;28;20726;-58
2023/03/05 10:08:33;;;;;;;19.67;10.73;;;8.50;99.90;;;;;;5095991;28;20207;-58
2023/03/05 10:11:05;;;;;;;25.00;11.30;;;8.50;99.90;;;;;;5095742;28;20204;-58
2023/03/05 10:13:36;;;;;;;20.97;12.23;;;8.80;99.90;;;;;;5095797;28;20204;-58
2023/03/05 10:16:22;;;;;;;21.70;11.53;;;9.00;99.90;;;;;;5095956;28;20214;-57
2023/03/05 10:18:57;;;;;;;21.43;12.30;;;9.20;99.90;;;;;;5096516;28;20660;-58
2023/03/05 10:21:30;;;;;;;20.50;11.43;;;9.30;99.90;;;;;;5095783;28;20260;-57
2023/03/05 10:24:09;;;;;;;22.73;11.77;;;9.10;99.90;;;;;;5096306;28;20243;-57
2023/03/05 10:26:49;;;;;;;19.23;10.73;;;8.90;99.90;;;;;;5095679;28;20208;-58
2023/03/05 10:29:39;;;;;;;18.00;10.13;;;8.80;99.90;;;;;;5095875;28;20253;-58
2023/03/05 10:32:18;;;;;;;20.60;11.30;;;8.30;99.90;;;;;;5095726;28;20205;-56
2023/03/05 10:34:57;;;;;;;21.90;11.00;;;8.10;99.90;;;;;;5096159;28;20228;-63
2023/03/05 10:37:47;;;;;;;18.27;11.63;;;8.10;99.90;;;;;;5095310;28;20219;-57
2023/03/05 10:40:26;;;;;;;22.47;11.13;;;7.80;99.90;;;;;;5088498;28;20204;-56
2023/03/05 10:43:01;;;;;;;19.60;11.27;;;7.90;99.90;;;;;;5095126;28;20212;-57
2023/03/05 10:45:32;;;;;;;19.73;12.00;;;8.00;99.90;;;;;;5094871;28;20727;-55
2023/03/05 10:48:07;;;;;;;19.17;11.33;;;8.20;99.90;;;;;;5095027;28;20188;-56
2023/03/05 10:50:37;;;;;;;21.17;11.10;;;8.50;99.90;;;;;;5094855;28;20290;-53
2023/03/05 10:53:16;;;;;;;20.53;11.30;;;8.70;99.90;;;;;;5094763;28;20224;-54
2023/03/05 10:55:43;;;;;;;21.63;11.50;;;9.00;99.90;;;;;;5094451;28;20227;-54
2023/03/05 10:58:12;;;;;;;18.43;11.33;;;9.20;99.90;;;;;;5094470;28;20684;-54
2023/03/05 11:00:39;;;;;;;22.80;11.57;;;9.40;99.90;;;;;;5094860;28;20205;-54
2023/03/05 11:03:09;;;;;;;18.77;11.10;;;9.60;99.90;;;;;;5094466;28;20269;-54
2023/03/05 11:05:47;;;;;;;20.93;11.70;;;9.80;99.90;;;;;;5094178;28;20224;-55
2023/03/05 11:08:32;;;;;;;19.47;11.13;;;9.70;99.90;;;;;;5094279;28;20715;-54
2023/03/05 11:11:12;;;;;;;20.67;10.67;;;9.40;99.90;;;;;;5094117;28;20680;-55
2023/03/05 11:13:51;;;;;;;21.47;11.97;;;9.50;99.90;;;;;;5094006;28;20224;-55
2023/03/05 11:16:21;;;;;;;22.47;12.73;;;9.40;99.90;;;;;;5094339;28;20208;-55
2023/03/05 11:18:49;;;;;;;21.93;11.67;;;9.30;99.90;;;;;;5094218;28;20200;-55
2023/03/05 11:21:26;;;;;;;19.50;11.43;;;9.40;99.90;;;;;;5093902;28;20236;-57
2023/03/05 11:24:12;;;;;;;18.53;12.00;;;9.60;99.90;;;;;;5093995;28;20246;-57
2023/03/05 11:26:47;;;;;;;19.27;11.33;;;9.60;99.90;;;;;;5094039;28;20200;-58
2023/03/05 11:29:22;;;;;;;19.50;11.97;;;9.30;99.90;;;;;;5094070;28;20215;-55
2023/03/05 11:31:49;;;;;;;22.50;11.87;;;9.10;99.90;;;;;;5094301;28;20569;-56
2023/03/05 11:34:33;;;;;;;19.87;11.93;;;9.10;99.90;;;;;;5094921;28;20235;-56
2023/03/05 11:37:04;;;;;;;22.07;11.63;;;9.30;99.90;;;;;;5095118;28;20204;-56
2023/03/05 11:39:34;;;;;;;22.73;12.37;;;9.20;99.90;;;;;;5094499;28;20208;-57
2023/03/05 11:42:05;;;;;;;19.70;12.23;;;9.10;99.90;;;;;;5093937;28;20223;-56
2023/03/05 11:44:34;;;;;;;19.43;12.23;;;8.80;99.90;;;;;;5094560;28;20220;-57
2023/03/05 11:47:04;;;;;;;22.93;12.17;;;8.70;99.90;;;;;;5094227;28;20208;-55
2023/03/05 11:49:45;;;;;;;19.83;12.27;;;8.80;99.90;;;;;;5093733;28;20295;-54
2023/03/05 11:52:18;;;;;;;21.83;12.10;;;8.80;99.90;;;;;;5093722;28;20328;-54
2023/03/05 11:54:53;;;;;;;21.53;12.27;;;8.70;99.90;;;;;;5093746;28;20224;-57
2023/03/05 11:57:23;;;;;;;20.33;12.23;;;8.60;99.90;;;;;;5093979;28;20291;-53
2023/03/05 11:59:52;;;;;;;23.60;12.10;;;8.50;99.90;;;;;;5094260;28;20240;-57
2023/03/05 12:02:21;;;;;;;22.93;13.27;;;8.50;99.90;;;;;;5093858;28;20211;-55
2023/03/05 12:04:51;;;;;;;24.67;12.77;;;8.60;99.90;;;;;;5094301;28;20224;-54
2023/03/05 12:07:22;;;;;;;21.77;12.07;;;8.60;99.90;;;;;;5093684;28;20215;-56
2023/03/05 12:09:51;;;;;;;22.17;13.00;;;8.30;99.90;;;;;;5093166;28;20725;-57
2023/03/05 12:12:34;;;;;;;22.57;12.80;;;8.20;99.90;;;;;;5093518;28;20303;-55
2023/03/05 12:15:22;;;;;;;21.03;11.70;;;8.00;99.90;;;;;;5093694;28;20256;-56
2023/03/05 12:17:59;;;;;;;22.17;13.10;;;7.80;99.90;;;;;;5093728;28;20208;-56
2023/03/05 12:20:37;;;;;;;24.07;13.50;;;7.80;99.90;;;;;;5093631;28;20208;-54
2023/03/05 12:23:05;;;;;;;22.70;13.30;;;8.10;99.90;;;;;;5093194;28;20243;-56
2023/03/05 12:25:34;;;;;;;22.87;14.80;;;8.20;99.90;;;;;;5092700;28;20731;-54
2023/03/05 12:28:01;;;;;;;22.47;13.07;;;8.30;99.90;;;;;;5092717;28;20208;-54
2023/03/05 12:31:01;;;;;;;24.17;13.40;;;8.60;99.90;;;;;;5093317;28;20208;-55
2023/03/05 12:33:34;;;;;;;19.47;12.37;;;9.00;99.90;;;;;;5050750;28;20237;-56
2023/03/05 12:36:34;;;;;;;19.97;11.57;;;8.90;99.90;;;;;;5050156;28;20268;-53
2023/03/05 12:39:01;;;;;;;17.40;11.40;;;8.70;99.90;;;;;;5080803;28;20299;-56
2023/03/05 12:41:38;;;;;;;22.60;12.50;;;8.50;99.90;;;;;;5093240;28;20244;-56
2023/03/05 12:44:26;;;;;;;21.20;13.07;;;8.40;99.90;;;;;;5093466;28;20224;-53
2023/03/05 12:47:16;;;;;;;19.80;12.30;;;8.50;99.90;;;;;;5089862;28;20279;-54
2023/03/05 12:49:45;;;;;;;23.73;12.43;;;8.50;99.90;;;;;;5093072;28;20230;-55